createdAt,value
2023-03-05T00:02:11.406Z,2.80
2023-03-05T00:04:41.225Z,2.80
2023-03-05T00:07:12.487Z,2.70
2023-03-05T00:09:42.931Z,2.70
2023-03-05T00:12:12.968Z,2.60
2023-03-05T00:14:44.589Z,2.70
2023-03-05T00:17:15.812Z,2.70
2023-03-05T00:19:53.488Z,2.70
2023-03-05T00:22:22.892Z,2.70
2023-03-05T00:24:54.815Z,2.70
2023-03-05T00:27:26.878Z,2.70
2023-03-05T00:30:06.950Z,2.70
2023-03-05T00:32:37.986Z,2.70
2023-03-05T00:35:09.635Z,2.70
2023-03-05T00:37:38.977Z,2.70
2023-03-05T00:40:08.875Z,2.70
2023-03-05T00:42:38.842Z,2.70
2023-03-05T00:45:10.363Z,2.70
2023-03-05T00:54:19.192Z,2.80
2023-03-05T00:56:49.308Z,2.70
2023-03-05T00:59:19.336Z,2.70
2023-03-05T01:01:49.035Z,2.60
2023-03-05T01:04:17.610Z,2.60
2023-03-05T01:06:50.057Z,2.60
2023-03-05T01:09:19.826Z,2.60
2023-03-05T01:11:48.170Z,2.60
2023-03-05T01:14:17.282Z,2.60
2023-03-05T01:16:45.689Z,2.70
2023-03-05T01:19:16.054Z,2.70
2023-03-05T01:21:44.432Z,2.70
2023-03-05T01:24:19.047Z,2.70
2023-03-05T01:26:50.108Z,2.80
2023-03-05T01:29:18.476Z,2.70
2023-03-05T01:31:46.788Z,2.60
2023-03-05T01:34:15.564Z,2.60
2023-03-05T01:36:45.158Z,2.60
2023-03-05T01:39:17.334Z,2.60
2023-03-05T01:41:50.941Z,2.50
2023-03-05T01:44:23.741Z,2.50
2023-03-05T01:46:57.303Z,2.40
2023-03-05T01:49:28.402Z,2.50
2023-03-05T01:52:07.425Z,2.50
2023-03-05T01:54:42.097Z,2.50
2023-03-05T01:57:17.917Z,2.50
2023-03-05T01:59:50.003Z,2.50
2023-03-05T02:02:22.135Z,2.50
2023-03-05T02:07:17.125Z,2.50
2023-03-05T02:09:45.348Z,2.50
2023-03-05T02:12:16.217Z,2.50
2023-03-05T02:14:48.324Z,2.40
2023-03-05T02:17:18.458Z,2.40
2023-03-05T02:19:51.750Z,2.50
2023-03-05T02:22:26.768Z,2.50
2023-03-05T02:24:56.284Z,2.40
2023-03-05T02:27:34.908Z,2.40
2023-03-05T02:30:05.155Z,2.40
2023-03-05T02:32:33.424Z,2.30
2023-03-05T02:35:03.956Z,2.30
2023-03-05T02:37:37.086Z,2.30
2023-03-05T02:40:07.584Z,2.30
2023-03-05T02:42:36.276Z,2.30
2023-03-05T02:45:07.120Z,2.30
2023-03-05T02:47:35.372Z,2.30
2023-03-05T02:50:03.786Z,2.20
2023-03-05T02:52:34.712Z,2.20
2023-03-05T02:55:05.874Z,2.30
2023-03-05T02:57:36.428Z,2.30
2023-03-05T03:00:07.660Z,2.30
2023-03-05T03:02:35.958Z,2.30
2023-03-05T03:05:10.786Z,2.30
2023-03-05T03:07:40.473Z,2.30
2023-03-05T03:10:10.058Z,2.40
2023-03-05T03:12:41.055Z,2.30
2023-03-05T03:15:13.020Z,2.30
2023-03-05T03:17:44.630Z,2.30
2023-03-05T03:20:16.836Z,2.30
2023-03-05T03:22:49.972Z,2.20
2023-03-05T03:25:21.256Z,2.30
2023-03-05T03:27:49.605Z,2.30
2023-03-05T03:30:23.566Z,2.30
2023-03-05T03:32:54.690Z,2.30
2023-03-05T03:35:33.687Z,2.30
2023-03-05T03:38:03.343Z,2.30
2023-03-05T03:40:33.299Z,2.20
2023-03-05T03:43:01.569Z,2.20
2023-03-05T03:45:30.047Z,2.20
2023-03-05T03:47:58.259Z,2.30
2023-03-05T03:50:27.888Z,2.30
2023-03-05T03:52:58.735Z,2.30
2023-03-05T03:55:29.489Z,2.20
2023-03-05T03:57:57.732Z,2.20
2023-03-05T04:00:30.909Z,2.20
2023-03-05T04:03:01.170Z,2.20
2023-03-05T04:05:30.707Z,2.20
2023-03-05T04:08:00.012Z,2.20
2023-03-05T04:10:43.474Z,2.20
2023-03-05T04:13:44.482Z,2.10
2023-03-05T04:16:18.246Z,2.10
2023-03-05T04:18:47.999Z,2.10
2023-03-05T04:21:17.880Z,2.10
2023-03-05T04:23:46.402Z,2.10
2023-03-05T04:26:17.477Z,2.10
2023-03-05T04:28:48.516Z,2.10
2023-03-05T04:31:18.041Z,2.10
2023-03-05T04:33:47.749Z,2.10
2023-03-05T04:36:16.102Z,2.10
2023-03-05T04:38:45.733Z,2.10
2023-03-05T04:41:21.460Z,2.10
2023-03-05T04:43:51.254Z,2.10
2023-03-05T04:46:19.615Z,2.10
2023-03-05T04:48:49.563Z,2.10
2023-03-05T04:51:19.062Z,2.20
2023-03-05T04:53:47.328Z,2.20
2023-03-05T04:56:17.596Z,2.10
2023-03-05T04:58:46.054Z,2.20
2023-03-05T05:01:16.802Z,2.10
2023-03-05T05:03:53.131Z,2.00
2023-03-05T05:06:21.453Z,2.00
2023-03-05T05:08:50.984Z,2.00
2023-03-05T05:11:20.482Z,1.90
2023-03-05T05:13:50.351Z,1.90
2023-03-05T05:16:21.225Z,1.90
2023-03-05T05:18:51.761Z,1.90
2023-03-05T05:21:20.600Z,1.90
2023-03-05T05:23:49.088Z,1.90
2023-03-05T05:26:17.600Z,1.90
2023-03-05T05:28:46.653Z,1.90
2023-03-05T05:31:17.983Z,1.90
2023-03-05T05:33:52.308Z,1.90
2023-03-05T05:36:22.450Z,1.90
2023-03-05T05:38:52.568Z,1.90
2023-03-05T05:41:24.758Z,1.90
2023-03-05T05:43:54.280Z,1.90
2023-03-05T05:46:24.955Z,1.90
2023-03-05T05:49:07.901Z,1.90
2023-03-05T05:51:38.263Z,1.90
2023-03-05T05:54:10.166Z,2.00
2023-03-05T05:56:39.981Z,1.90
2023-03-05T05:59:11.902Z,1.90
2023-03-05T06:01:40.887Z,1.90
2023-03-05T06:04:12.269Z,1.80
2023-03-05T06:06:42.932Z,1.80
2023-03-05T06:09:11.456Z,1.90
2023-03-05T06:11:41.015Z,1.90
2023-03-05T06:14:15.303Z,1.90
2023-03-05T06:16:49.710Z,1.90
2023-03-05T06:19:20.573Z,1.80
2023-03-05T06:21:48.893Z,1.90
2023-03-05T06:24:19.321Z,1.90
2023-03-05T06:26:48.952Z,2.00
2023-03-05T06:29:17.504Z,1.90
2023-03-05T06:34:16.584Z,2.00
2023-03-05T06:36:46.976Z,2.00
2023-03-05T06:39:15.185Z,2.00
2023-03-05T06:41:44.961Z,2.00
2023-03-05T06:44:13.819Z,2.10
2023-03-05T06:46:46.425Z,2.00
2023-03-05T06:49:15.784Z,2.00
2023-03-05T06:51:50.669Z,2.00
2023-03-05T06:54:20.265Z,2.10
2023-03-05T06:56:52.624Z,2.00
2023-03-05T06:59:21.733Z,2.00
2023-03-05T07:01:51.708Z,2.00
2023-03-05T07:04:24.429Z,2.00
2023-03-05T07:06:55.997Z,2.00
2023-03-05T07:09:24.371Z,2.10
2023-03-05T07:11:54.970Z,2.10
2023-03-05T07:14:23.811Z,2.10
2023-03-05T07:16:53.440Z,2.10
2023-03-05T07:19:22.706Z,2.20
2023-03-05T07:21:54.908Z,2.20
2023-03-05T07:24:30.624Z,2.20
2023-03-05T07:27:00.245Z,2.30
2023-03-05T07:29:29.301Z,2.20
2023-03-05T07:31:59.104Z,2.30
2023-03-05T07:34:31.214Z,2.30
2023-03-05T07:37:00.879Z,2.20
2023-03-05T07:39:30.600Z,2.20
2023-03-05T07:41:58.959Z,2.20
2023-03-05T07:44:29.524Z,2.30
2023-03-05T07:46:58.841Z,2.50
2023-03-05T07:49:47.956Z,2.60
2023-03-05T07:52:18.443Z,2.60
2023-03-05T07:54:49.375Z,2.60
2023-03-05T07:57:25.146Z,2.70
2023-03-05T08:00:11.730Z,2.70
2023-03-05T08:03:03.164Z,2.90
2023-03-05T08:05:31.903Z,2.80
2023-03-05T08:08:05.154Z,2.90
2023-03-05T08:10:46.194Z,2.80
2023-03-05T08:13:16.249Z,3.00
2023-03-05T08:15:46.241Z,2.80
2023-03-05T08:18:15.672Z,2.90
2023-03-05T08:20:45.206Z,3.00
2023-03-05T08:23:24.782Z,2.90
2023-03-05T08:25:55.954Z,2.80
2023-03-05T08:28:36.337Z,2.90
2023-03-05T08:31:17.790Z,2.90
2023-03-05T08:33:46.612Z,2.80
2023-03-05T08:36:19.637Z,2.80
2023-03-05T08:38:56.992Z,2.70
2023-03-05T08:41:34.207Z,2.90
2023-03-05T08:44:03.161Z,2.90
2023-03-05T08:46:55.152Z,2.90
2023-03-05T08:49:28.449Z,3.00
2023-03-05T08:51:57.885Z,2.90
2023-03-05T08:54:28.302Z,2.90
2023-03-05T08:57:03.118Z,3.00
2023-03-05T08:59:32.907Z,3.00
2023-03-05T09:02:02.849Z,2.90
2023-03-05T09:04:31.572Z,2.80
2023-03-05T09:07:01.516Z,2.90
2023-03-05T09:09:30.416Z,2.90
2023-03-05T09:12:05.068Z,2.90
2023-03-05T09:14:35.155Z,2.90
2023-03-05T09:17:07.251Z,2.80
2023-03-05T09:19:38.190Z,2.90
2023-03-05T09:22:19.063Z,3.00
2023-03-05T09:24:59.190Z,3.00
2023-03-05T09:27:34.275Z,2.90
2023-03-05T09:30:05.531Z,2.90
2023-03-05T09:32:34.920Z,2.90
2023-03-05T09:35:03.481Z,3.00
2023-03-05T09:37:34.708Z,3.30
2023-03-05T09:40:09.211Z,3.40
2023-03-05T09:43:29.828Z,3.60
2023-03-05T09:46:14.882Z,3.50
2023-03-05T09:49:08.115Z,3.60
2023-03-05T09:51:49.928Z,3.90
2023-03-05T09:54:25.929Z,3.90
2023-03-05T09:57:03.060Z,3.70
2023-03-05T09:59:51.426Z,3.80
2023-03-05T10:02:27.364Z,3.70
2023-03-05T10:07:58.738Z,3.80
2023-03-05T10:10:29.356Z,3.60
2023-03-05T10:13:01.957Z,3.60
2023-03-05T10:15:51.500Z,3.50
2023-03-05T10:18:42.797Z,3.60
2023-03-05T10:21:17.635Z,3.60
2023-03-05T10:24:06.330Z,3.50
2023-03-05T10:27:10.070Z,3.60
2023-03-05T10:30:06.174Z,3.80
2023-03-05T10:32:51.526Z,3.80
2023-03-05T10:35:55.805Z,3.80
2023-03-05T10:38:45.747Z,3.80
2023-03-05T10:41:22.030Z,3.60
2023-03-05T10:43:59.383Z,3.70
2023-03-05T10:46:34.027Z,3.90
2023-03-05T10:49:23.176Z,3.80
2023-03-05T10:51:57.710Z,3.90
2023-03-05T10:54:29.925Z,3.80
2023-03-05T10:57:22.580Z,3.90
2023-03-05T10:59:52.725Z,3.90
2023-03-05T11:02:31.030Z,3.90
2023-03-05T11:05:54.069Z,4.00
2023-03-05T11:11:19.629Z,4.00
2023-03-05T11:14:04.171Z,4.10
2023-03-05T11:16:52.447Z,4.10
2023-03-05T11:19:53.412Z,4.20
2023-03-05T11:25:39.511Z,4.20
2023-03-05T11:28:32.204Z,4.40
2023-03-05T11:31:10.124Z,4.50
2023-03-05T11:33:39.792Z,4.70
2023-03-05T11:36:25.296Z,4.70
2023-03-05T11:39:01.099Z,4.60
2023-03-05T11:41:38.709Z,4.70
2023-03-05T11:44:16.052Z,4.40
2023-03-05T11:46:57.490Z,4.80
2023-03-05T11:49:31.679Z,4.70
2023-03-05T11:52:29.854Z,4.70
2023-03-05T11:55:06.679Z,4.70
2023-03-05T11:57:44.952Z,4.60
2023-03-05T12:00:19.050Z,4.70
2023-03-05T12:02:58.260Z,4.30
2023-03-05T12:05:33.787Z,4.50
2023-03-05T12:08:05.952Z,4.20
2023-03-05T12:11:13.219Z,4.30
2023-03-05T12:13:59.981Z,4.40
2023-03-05T12:16:42.879Z,4.80
2023-03-05T12:19:43.686Z,4.90
2023-03-05T12:22:39.940Z,4.70
2023-03-05T12:29:02.492Z,4.60
2023-03-05T12:31:39.558Z,4.40
2023-03-05T12:34:58.120Z,4.40
2023-03-05T12:37:59.046Z,4.30
2023-03-05T12:40:30.166Z,4.30
2023-03-05T12:43:02.557Z,4.30
2023-03-05T12:45:39.845Z,4.40
2023-03-05T12:48:51.959Z,4.40
2023-03-05T12:51:35.920Z,4.40
2023-03-05T12:54:40.357Z,4.20
2023-03-05T12:57:23.509Z,4.20
2023-03-05T13:00:09.229Z,4.30
2023-03-05T13:02:44.879Z,4.40
2023-03-05T13:05:23.628Z,4.40
2023-03-05T13:08:16.180Z,4.40
2023-03-05T13:10:53.662Z,4.30
2023-03-05T13:13:26.988Z,4.30
2023-03-05T13:16:00.242Z,4.20
2023-03-05T13:18:40.172Z,4.10
2023-03-05T13:21:15.769Z,4.30
2023-03-05T13:23:51.321Z,4.20
2023-03-05T13:26:44.367Z,4.20
2023-03-05T13:29:18.009Z,4.30
2023-03-05T13:31:52.011Z,4.50
2023-03-05T13:34:44.474Z,4.60
2023-03-05T13:37:19.804Z,4.50
2023-03-05T13:39:51.963Z,4.20
2023-03-05T13:42:21.862Z,4.30
2023-03-05T13:45:04.463Z,4.30
2023-03-05T13:50:54.502Z,4.40
2023-03-05T13:53:30.546Z,4.30
2023-03-05T13:56:10.829Z,4.00
2023-03-05T14:07:56.778Z,4.00
2023-03-05T14:10:34.544Z,4.00
2023-03-05T14:13:07.631Z,4.00
2023-03-05T14:15:43.450Z,4.10
2023-03-05T14:18:23.037Z,4.30
2023-03-05T14:21:07.334Z,4.30
2023-03-05T14:23:43.787Z,4.10
2023-03-05T14:26:29.627Z,4.00
2023-03-05T14:29:00.309Z,4.10
2023-03-05T14:31:31.414Z,4.20
2023-03-05T14:34:04.739Z,4.10
2023-03-05T14:36:33.827Z,4.10
2023-03-05T14:39:08.631Z,4.10
2023-03-05T14:41:40.119Z,4.10
2023-03-05T14:44:23.975Z,4.10
2023-03-05T14:46:52.834Z,4.00
2023-03-05T14:49:21.833Z,4.00
2023-03-05T14:51:50.103Z,3.90
2023-03-05T14:54:26.190Z,3.80
2023-03-05T15:03:05.103Z,3.70
2023-03-05T15:05:34.560Z,3.70
2023-03-05T15:08:02.907Z,3.80
2023-03-05T15:10:33.541Z,3.80
2023-03-05T15:13:03.333Z,3.70
2023-03-05T15:15:34.791Z,3.50
2023-03-05T15:18:03.069Z,3.60
2023-03-05T15:20:33.972Z,3.40
2023-03-05T15:23:02.255Z,3.40
2023-03-05T15:25:32.714Z,3.50
2023-03-05T15:28:08.254Z,3.40
2023-03-05T15:30:43.037Z,3.50
2023-03-05T15:33:13.873Z,3.60
2023-03-05T15:35:51.171Z,3.50
2023-03-05T15:41:22.387Z,3.60
2023-03-05T15:44:02.509Z,3.60
2023-03-05T15:46:33.323Z,3.60
2023-03-05T15:49:02.775Z,3.60
2023-03-05T15:51:32.171Z,3.50
2023-03-05T15:54:07.993Z,3.50
2023-03-05T15:56:45.169Z,3.60
2023-03-05T15:59:14.958Z,3.60
2023-03-05T16:05:03.202Z,3.50
2023-03-05T16:07:51.277Z,3.40
2023-03-05T16:14:19.128Z,3.50
2023-03-05T16:16:56.298Z,3.30
2023-03-05T16:19:26.260Z,3.40
2023-03-05T16:21:54.889Z,3.40
2023-03-05T16:24:24.673Z,3.50
2023-03-05T16:26:53.640Z,3.50
2023-03-05T16:32:55.962Z,3.50
2023-03-05T16:35:28.275Z,3.50
2023-03-05T16:37:57.807Z,3.50
2023-03-05T16:40:38.890Z,3.60
2023-03-05T16:43:27.649Z,3.50
2023-03-05T16:46:07.543Z,3.50
2023-03-05T16:48:39.229Z,3.50
2023-03-05T16:51:11.542Z,3.40
2023-03-05T16:53:47.670Z,3.50
2023-03-05T16:56:19.637Z,3.40
2023-03-05T16:58:53.205Z,3.50
2023-03-05T17:01:24.760Z,3.50
2023-03-05T17:04:04.237Z,3.50
2023-03-05T17:06:34.884Z,3.40
2023-03-05T17:09:03.987Z,3.40
2023-03-05T17:11:32.624Z,3.30
2023-03-05T17:14:04.612Z,3.40
2023-03-05T17:16:33.709Z,3.40
2023-03-05T17:19:05.609Z,3.30
2023-03-05T17:21:33.876Z,3.20
2023-03-05T17:24:24.762Z,3.20
2023-03-05T17:27:14.668Z,3.20
2023-03-05T17:29:48.289Z,3.30
2023-03-05T17:32:26.200Z,3.30
2023-03-05T17:34:57.048Z,3.30
2023-03-05T17:37:28.533Z,3.20
2023-03-05T17:40:01.949Z,3.20
2023-03-05T17:42:35.320Z,3.20
2023-03-05T17:45:10.081Z,3.10
2023-03-05T17:47:38.774Z,3.10
2023-03-05T17:50:14.300Z,3.00
2023-03-05T17:52:43.663Z,3.00
2023-03-05T17:58:22.659Z,2.90
2023-03-05T18:00:52.201Z,2.90
2023-03-05T18:03:50.561Z,2.90
2023-03-05T18:06:22.718Z,2.90
2023-03-05T18:08:51.707Z,2.90
2023-03-05T18:11:22.054Z,2.80
2023-03-05T18:13:51.041Z,2.90
2023-03-05T18:16:21.605Z,2.90
2023-03-05T18:18:54.121Z,2.90
2023-03-05T18:21:25.421Z,2.90
2023-03-05T18:23:54.186Z,2.90
2023-03-05T18:26:22.631Z,2.90
2023-03-05T18:28:53.851Z,2.80
2023-03-05T18:31:26.204Z,2.80
2023-03-05T18:34:25.142Z,2.80
2023-03-05T18:40:41.764Z,2.80
2023-03-05T18:43:19.508Z,2.70
2023-03-05T18:45:48.610Z,2.70
2023-03-05T18:48:17.103Z,2.60
2023-03-05T18:50:47.328Z,2.60
2023-03-05T18:53:22.810Z,2.70
2023-03-05T18:55:54.462Z,2.60
2023-03-05T18:58:26.214Z,2.60
2023-03-05T19:00:58.283Z,2.60
2023-03-05T19:03:29.050Z,2.50
2023-03-05T19:06:04.195Z,2.60
2023-03-05T19:08:36.088Z,2.60
2023-03-05T19:11:07.325Z,2.50
2023-03-05T19:13:41.153Z,2.50
2023-03-05T19:16:13.507Z,2.50
2023-03-05T19:19:22.902Z,2.50
2023-03-05T19:22:11.778Z,2.50
2023-03-05T19:24:53.573Z,2.40
2023-03-05T19:27:32.293Z,2.40
2023-03-05T19:30:33.831Z,2.50
2023-03-05T19:33:13.138Z,2.50
2023-03-05T19:42:04.184Z,2.40
2023-03-05T19:44:34.257Z,2.30
2023-03-05T19:47:05.224Z,2.30
2023-03-05T19:56:09.679Z,2.40
2023-03-05T19:58:48.258Z,2.40
2023-03-05T20:01:19.850Z,2.40
2023-03-05T20:03:50.760Z,2.40
2023-03-05T20:06:20.561Z,2.40
2023-03-05T20:08:49.350Z,2.40
2023-03-05T20:11:19.941Z,2.20
2023-03-05T20:13:53.823Z,2.30
2023-03-05T20:16:25.286Z,2.30
2023-03-05T20:18:55.132Z,2.40
2023-03-05T20:21:26.772Z,2.40
2023-03-05T20:31:21.652Z,2.40
2023-03-05T20:33:55.357Z,2.30
2023-03-05T20:36:27.112Z,2.30
2023-03-05T20:39:07.511Z,2.30
2023-03-05T20:41:52.300Z,2.40
2023-03-05T20:44:30.331Z,2.40
2023-03-05T20:47:44.753Z,2.40
2023-03-05T20:50:24.429Z,2.40
2023-03-05T20:52:59.782Z,2.50
2023-03-05T20:55:29.443Z,2.30
2023-03-05T20:57:58.860Z,2.20
2023-03-05T21:00:37.482Z,2.20
2023-03-05T21:03:09.530Z,2.20
2023-03-05T21:05:39.279Z,2.30
2023-03-05T21:08:10.396Z,2.20
2023-03-05T21:10:41.929Z,2.30
2023-03-05T21:13:15.217Z,2.30
2023-03-05T21:15:49.547Z,2.30
2023-03-05T21:18:23.472Z,2.20
2023-03-05T21:21:02.425Z,2.20
2023-03-05T21:23:31.069Z,2.30
2023-03-05T21:26:00.014Z,2.20
2023-03-05T21:28:37.927Z,2.30
2023-03-05T21:31:24.560Z,2.30
2023-03-05T21:34:18.671Z,2.20
2023-03-05T21:36:54.157Z,2.10
2023-03-05T21:39:32.070Z,2.10
2023-03-05T21:42:06.994Z,2.20
2023-03-05T21:44:42.608Z,2.10
2023-03-05T21:47:13.830Z,2.10
2023-03-05T21:49:42.494Z,2.10
2023-03-05T21:52:35.191Z,2.10
2023-03-05T21:55:23.845Z,2.10
2023-03-05T21:57:56.457Z,2.10
2023-03-05T22:00:35.424Z,2.10
2023-03-05T22:03:09.432Z,2.10
2023-03-05T22:05:42.066Z,2.00
2023-03-05T22:08:21.597Z,2.10
2023-03-05T22:11:01.248Z,2.10
2023-03-05T22:13:39.884Z,2.10
2023-03-05T22:16:11.490Z,2.10
2023-03-05T22:19:08.885Z,2.10
2023-03-05T22:24:34.210Z,2.00
2023-03-05T22:27:17.030Z,2.00
2023-03-05T22:29:47.651Z,2.10
2023-03-05T22:32:20.453Z,2.10
2023-03-05T22:35:01.747Z,2.10
2023-03-05T22:37:37.049Z,2.10
2023-03-05T22:40:18.220Z,2.00
2023-03-05T22:43:17.001Z,1.90
2023-03-05T22:45:58.867Z,2.00
2023-03-05T22:48:33.690Z,2.00
2023-03-05T22:51:19.808Z,2.00
2023-03-05T22:53:53.820Z,2.00
2023-03-05T22:56:44.662Z,2.00
2023-03-05T22:59:24.482Z,1.90
2023-03-05T23:02:13.826Z,2.00
2023-03-05T23:04:57.513Z,1.90
2023-03-05T23:07:30.156Z,1.90
2023-03-05T23:10:00.292Z,1.80
2023-03-05T23:12:33.350Z,1.90
2023-03-05T23:15:02.150Z,1.90
2023-03-05T23:17:30.856Z,1.90
2023-03-05T23:19:59.144Z,1.80
2023-03-05T23:22:31.792Z,1.90
2023-03-05T23:25:00.208Z,1.90
2023-03-05T23:27:30.325Z,1.90
2023-03-05T23:30:16.651Z,1.90
2023-03-05T23:32:46.466Z,1.90
2023-03-05T23:35:16.932Z,1.80
2023-03-05T23:37:45.224Z,1.80
2023-03-05T23:40:16.482Z,1.90
2023-03-05T23:42:50.356Z,1.90
2023-03-05T23:45:25.292Z,1.90
2023-03-05T23:47:55.703Z,1.80
2023-03-05T23:50:28.814Z,1.80
2023-03-05T23:53:03.488Z,1.80
2023-03-05T23:55:33.875Z,1.80
2023-03-05T23:58:05.569Z,1.80
